createdAt,value
2018-11-26T00:01:07.527Z,100645.66
2018-11-26T00:03:37.344Z,100645.34
2018-11-26T00:06:07.333Z,100642.95
2018-11-26T00:08:36.822Z,100640.06
2018-11-26T00:11:36.046Z,100649.21
2018-11-26T00:14:06.141Z,100643.56
2018-11-26T00:16:35.547Z,100644.47
2018-11-26T00:19:05.493Z,100642.41
2018-11-26T00:21:34.942Z,100639.91
2018-11-26T00:24:04.446Z,100640.89
2018-11-26T00:26:33.875Z,100644.83
2018-11-26T00:29:03.281Z,100641.47
2018-11-26T00:31:32.784Z,100639.91
2018-11-26T00:34:02.231Z,100645.63
2018-11-26T00:36:31.686Z,100649.63
2018-11-26T00:39:01.101Z,100647.62
2018-11-26T00:41:30.548Z,100645.64
2018-11-26T00:44:00.011Z,100646.72
2018-11-26T00:46:29.428Z,100642.13
2018-11-26T00:48:59.030Z,100651.41
2018-11-26T00:51:28.501Z,100644.72
2018-11-26T00:53:57.924Z,100642.67
2018-11-26T00:56:27.364Z,100641.98
2018-11-26T00:58:56.835Z,100632.38
2018-11-26T01:01:26.376Z,100638.59
2018-11-26T01:03:55.983Z,100641.77
2018-11-26T01:06:25.843Z,100645.03
2018-11-26T01:08:55.574Z,100648.42
2018-11-26T01:11:25.215Z,100634.85
2018-11-26T01:13:54.624Z,100640.47
2018-11-26T01:16:24.035Z,100639.84
2018-11-26T01:18:53.519Z,100645.17
2018-11-26T01:21:22.929Z,100652.34
2018-11-26T01:23:52.389Z,100637.19
2018-11-26T01:26:21.830Z,100637.03
2018-11-26T01:28:51.249Z,100647.58
2018-11-26T01:31:20.701Z,100634.56
2018-11-26T01:33:50.251Z,100631.11
2018-11-26T01:36:19.689Z,100639.16
2018-11-26T01:38:49.218Z,100638.23
2018-11-26T01:41:18.647Z,100638.08
2018-11-26T01:43:48.090Z,100638.66
2018-11-26T01:46:17.729Z,100642.52
2018-11-26T01:48:47.163Z,100640.19
2018-11-26T01:51:16.632Z,100640.48
2018-11-26T01:53:46.050Z,100640.00
2018-11-26T01:56:15.579Z,100636.80
2018-11-26T01:58:45.039Z,100639.13
2018-11-26T02:01:14.582Z,100623.91
2018-11-26T02:03:44.141Z,100623.20
2018-11-26T02:06:13.683Z,100621.44
2018-11-26T02:08:43.185Z,100621.44
2018-11-26T02:11:12.604Z,100621.44
2018-11-26T02:13:42.109Z,100604.88
2018-11-26T02:16:11.611Z,100608.20
2018-11-26T02:18:41.116Z,100616.78
2018-11-26T02:21:10.585Z,100608.12
2018-11-26T02:23:40.157Z,100608.36
2018-11-26T02:26:09.616Z,100599.10
2018-11-26T02:28:39.037Z,100604.51
2018-11-26T02:31:08.478Z,100611.72
2018-11-26T02:33:38.166Z,100601.77
2018-11-26T02:36:07.743Z,100599.48
2018-11-26T02:38:37.157Z,100590.89
2018-11-26T02:41:07.101Z,100602.83
2018-11-26T02:43:36.506Z,100607.78
2018-11-26T02:46:06.290Z,100605.33
2018-11-26T02:48:35.923Z,100597.74
2018-11-26T02:51:05.412Z,100599.91
2018-11-26T02:53:34.891Z,100599.52
2018-11-26T02:56:04.458Z,100598.77
2018-11-26T02:58:34.026Z,100593.63
2018-11-26T03:01:03.531Z,100589.83
2018-11-26T03:03:33.045Z,100595.05
2018-11-26T03:06:02.505Z,100592.41
2018-11-26T03:08:31.927Z,100596.20
2018-11-26T03:11:01.471Z,100597.89
2018-11-26T03:13:30.961Z,100595.72
2018-11-26T03:16:00.550Z,100601.75
2018-11-26T03:18:29.961Z,100603.92
2018-11-26T03:20:59.489Z,100615.91
2018-11-26T03:23:28.892Z,100610.28
2018-11-26T03:25:58.375Z,100616.64
2018-11-26T03:28:27.781Z,100620.03
2018-11-26T03:30:57.181Z,100612.72
2018-11-26T03:33:26.812Z,100622.67
2018-11-26T03:35:56.282Z,100621.80
2018-11-26T03:38:54.023Z,100625.39
2018-11-26T03:41:24.090Z,100631.09
2018-11-26T03:43:53.591Z,100627.70
2018-11-26T03:46:23.100Z,100626.42
2018-11-26T03:48:52.522Z,100621.46
2018-11-26T03:51:22.039Z,100620.44
2018-11-26T03:53:51.597Z,100619.95
2018-11-26T03:56:21.097Z,100620.66
2018-11-26T03:58:50.746Z,100618.81
2018-11-26T04:01:20.354Z,100623.01
2018-11-26T04:03:49.926Z,100625.36
2018-11-26T04:06:19.343Z,100627.46
2018-11-26T04:08:48.810Z,100627.86
2018-11-26T04:11:18.248Z,100626.44
2018-11-26T04:13:47.774Z,100624.55
2018-11-26T04:16:17.200Z,100621.83
2018-11-26T04:18:46.722Z,100621.43
2018-11-26T04:21:16.156Z,100628.97
2018-11-26T04:23:45.684Z,100629.96
2018-11-26T04:26:15.177Z,100629.85
2018-11-26T04:28:44.660Z,100639.19
2018-11-26T04:31:14.266Z,100639.15
2018-11-26T04:33:43.671Z,100641.23
2018-11-26T04:36:13.182Z,100642.41
2018-11-26T04:38:42.620Z,100635.75
2018-11-26T04:41:12.107Z,100639.48
2018-11-26T04:43:41.592Z,100643.23
2018-11-26T04:46:11.248Z,100627.95
2018-11-26T04:48:40.641Z,100633.78
2018-11-26T04:51:10.120Z,100642.53
2018-11-26T04:53:39.556Z,100634.91
2018-11-26T04:56:09.021Z,100632.55
2018-11-26T04:58:38.542Z,100629.63
2018-11-26T05:01:08.030Z,100628.88
2018-11-26T05:03:37.533Z,100622.04
2018-11-26T05:06:07.505Z,100622.11
2018-11-26T05:08:37.097Z,100622.17
2018-11-26T05:11:06.995Z,100630.48
2018-11-26T05:13:36.417Z,100633.60
2018-11-26T05:16:06.233Z,100639.23
2018-11-26T05:18:35.685Z,100630.34
2018-11-26T05:21:05.330Z,100630.28
2018-11-26T05:23:34.948Z,100628.45
2018-11-26T05:26:04.355Z,100629.12
2018-11-26T05:28:33.870Z,100631.23
2018-11-26T05:31:03.361Z,100632.11
2018-11-26T05:33:32.782Z,100634.89
2018-11-26T05:36:02.274Z,100628.04
2018-11-26T05:38:31.977Z,100631.02
2018-11-26T05:41:01.463Z,100631.77
2018-11-26T05:43:30.914Z,100630.55
2018-11-26T05:46:00.369Z,100625.73
2018-11-26T05:48:29.957Z,100630.48
2018-11-26T05:50:59.587Z,100627.16
2018-11-26T05:53:29.220Z,100640.92
2018-11-26T05:55:58.619Z,100621.94
2018-11-26T05:58:28.069Z,100621.53
2018-11-26T06:00:57.789Z,100626.41
2018-11-26T06:03:27.195Z,100611.83
2018-11-26T06:05:56.608Z,100615.70
2018-11-26T06:08:26.026Z,100621.87
2018-11-26T06:10:55.501Z,100617.19
2018-11-26T06:13:25.052Z,100616.71
2018-11-26T06:15:54.433Z,100623.09
2018-11-26T06:18:23.794Z,100628.52
2018-11-26T06:20:53.467Z,100623.84
2018-11-26T06:23:22.905Z,100626.00
2018-11-26T06:25:52.825Z,100626.08
2018-11-26T06:28:22.293Z,100629.53
2018-11-26T06:30:51.761Z,100632.59
2018-11-26T06:33:21.152Z,100644.28
2018-11-26T06:35:50.557Z,100638.52
2018-11-26T06:38:20.057Z,100638.11
2018-11-26T06:40:49.582Z,100646.32
2018-11-26T06:43:19.010Z,100634.31
2018-11-26T06:45:48.389Z,100648.42
2018-11-26T06:48:17.868Z,100646.25
2018-11-26T06:50:47.289Z,100654.87
2018-11-26T06:53:16.775Z,100662.73
2018-11-26T06:55:46.186Z,100658.53
2018-11-26T06:58:15.574Z,100658.26
2018-11-26T07:00:44.973Z,100654.02
2018-11-26T07:03:14.358Z,100664.87
2018-11-26T07:05:43.901Z,100664.80
2018-11-26T07:08:13.429Z,100669.62
2018-11-26T07:10:42.929Z,100665.89
2018-11-26T07:13:12.623Z,100670.77
2018-11-26T07:15:42.130Z,100673.92
2018-11-26T07:18:11.565Z,100668.90
2018-11-26T07:20:41.191Z,100668.83
2018-11-26T07:23:10.609Z,100673.92
2018-11-26T07:25:40.005Z,100676.47
2018-11-26T07:28:09.894Z,100674.30
2018-11-26T07:30:39.347Z,100673.34
2018-11-26T07:33:08.773Z,100670.43
2018-11-26T07:35:38.181Z,100674.30
2018-11-26T07:38:07.617Z,100679.97
2018-11-26T07:40:37.089Z,100676.06
2018-11-26T07:43:15.273Z,100684.23
2018-11-26T07:45:44.695Z,100685.53
2018-11-26T07:48:14.149Z,100683.49
2018-11-26T07:50:43.637Z,100691.42
2018-11-26T07:53:13.550Z,100691.16
2018-11-26T07:55:43.011Z,100688.23
2018-11-26T07:58:12.434Z,100685.75
2018-11-26T08:00:42.135Z,100693.08
2018-11-26T08:03:11.682Z,100690.41
2018-11-26T08:05:41.147Z,100688.73
2018-11-26T08:08:10.587Z,100692.61
2018-11-26T08:10:40.033Z,100699.19
2018-11-26T08:13:09.448Z,100694.03
2018-11-26T08:15:38.857Z,100695.45
2018-11-26T08:18:08.297Z,100697.28
2018-11-26T08:20:38.020Z,100695.58
2018-11-26T08:23:07.593Z,100690.42
2018-11-26T08:25:37.016Z,100702.51
2018-11-26T08:28:07.246Z,100697.00
2018-11-26T08:30:36.726Z,100700.06
2018-11-26T08:33:06.789Z,100704.50
2018-11-26T08:35:36.217Z,100710.20
2018-11-26T08:38:08.014Z,100712.09
2018-11-26T08:40:44.036Z,100709.58
2018-11-26T08:43:18.624Z,100709.17
2018-11-26T08:45:57.207Z,100708.29
2018-11-26T08:48:28.546Z,100699.73
2018-11-26T08:51:01.789Z,100707.13
2018-11-26T08:53:31.847Z,100702.88
2018-11-26T08:56:01.252Z,100700.30
2018-11-26T08:58:30.690Z,100712.05
2018-11-26T09:01:11.126Z,100724.54
2018-11-26T09:03:45.980Z,100702.26
2018-11-26T09:06:15.378Z,100709.59
2018-11-26T09:08:44.871Z,100710.54
2018-11-26T09:11:14.541Z,100710.67
2018-11-26T09:13:43.945Z,100711.23
2018-11-26T09:16:20.150Z,100709.06
2018-11-26T09:18:49.550Z,100710.14
2018-11-26T09:21:19.006Z,100712.09
2018-11-26T09:23:48.427Z,100711.83
2018-11-26T09:26:17.818Z,100718.00
2018-11-26T09:28:47.217Z,100702.64
2018-11-26T09:31:16.808Z,100700.34
2018-11-26T09:33:46.214Z,100700.64
2018-11-26T09:36:15.607Z,100705.20
2018-11-26T09:38:45.115Z,100698.74
2018-11-26T09:41:14.522Z,100705.27
2018-11-26T09:43:43.921Z,100700.98
2018-11-26T09:46:13.371Z,100698.39
2018-11-26T09:48:42.770Z,100695.27
2018-11-26T09:51:14.378Z,100684.72
2018-11-26T09:53:41.933Z,100693.59
2018-11-26T09:56:11.350Z,100683.31
2018-11-26T09:58:40.759Z,100681.23
2018-11-26T10:01:10.986Z,100681.23
2018-11-26T10:03:40.410Z,100686.22
2018-11-26T10:06:09.870Z,100689.06
2018-11-26T10:08:39.491Z,100684.37
2018-11-26T10:11:08.894Z,100684.37
2018-11-26T10:13:38.289Z,100681.73
2018-11-26T10:16:08.319Z,100686.02
2018-11-26T10:18:37.745Z,100682.55
2018-11-26T10:21:07.178Z,100682.99
2018-11-26T10:23:36.718Z,100691.77
2018-11-26T10:26:06.474Z,100692.77
2018-11-26T10:28:35.909Z,100692.30
2018-11-26T10:31:05.538Z,100687.95
2018-11-26T10:33:34.989Z,100702.40
2018-11-26T10:36:04.451Z,100694.63
2018-11-26T10:38:33.905Z,100696.41
2018-11-26T10:41:03.390Z,100711.86
2018-11-26T10:43:32.804Z,100689.28
2018-11-26T10:46:02.301Z,100693.63
2018-11-26T10:48:31.866Z,100692.80
2018-11-26T10:51:01.323Z,100688.92
2018-11-26T10:53:30.750Z,100691.98
2018-11-26T10:56:00.229Z,100688.57
2018-11-26T10:58:29.662Z,100692.95
2018-11-26T11:01:02.132Z,100679.26
2018-11-26T11:03:31.592Z,100684.08
2018-11-26T11:06:00.993Z,100703.11
2018-11-26T11:08:30.604Z,100684.84
2018-11-26T11:11:00.011Z,100686.55
2018-11-26T11:13:29.414Z,100688.24
2018-11-26T11:15:59.004Z,100691.71
2018-11-26T11:18:28.398Z,100696.47
2018-11-26T11:20:57.939Z,100703.34
2018-11-26T11:23:27.650Z,100698.58
2018-11-26T11:25:57.104Z,100697.41
2018-11-26T11:28:26.534Z,100689.13
2018-11-26T11:30:56.116Z,100682.80
2018-11-26T11:35:55.008Z,100690.27
2018-11-26T11:38:24.451Z,100684.73
2018-11-26T11:40:53.902Z,100683.03
2018-11-26T11:43:23.384Z,100680.03
2018-11-26T11:45:52.960Z,100677.03
2018-11-26T11:48:22.410Z,100679.21
2018-11-26T11:50:51.802Z,100685.32
2018-11-26T11:53:21.248Z,100693.90
2018-11-26T11:55:50.655Z,100688.37
2018-11-26T11:58:20.059Z,100682.27
2018-11-26T12:00:50.041Z,100678.69
2018-11-26T12:03:21.128Z,100686.39
2018-11-26T12:05:52.273Z,100704.78
2018-11-26T12:08:21.687Z,100677.52
2018-11-26T12:10:51.094Z,100689.20
2018-11-26T12:13:20.517Z,100693.14
2018-11-26T12:15:52.115Z,100687.56
2018-11-26T12:18:21.552Z,100684.86
2018-11-26T12:20:51.019Z,100686.62
2018-11-26T12:23:20.486Z,100688.03
2018-11-26T12:25:49.898Z,100686.39
2018-11-26T12:28:19.328Z,100692.55
2018-11-26T12:30:48.753Z,100690.44
2018-11-26T12:33:18.378Z,100693.79
2018-11-26T12:35:47.826Z,100695.91
2018-11-26T12:38:17.259Z,100692.02
2018-11-26T12:40:46.679Z,100698.48
2018-11-26T12:43:16.128Z,100693.73
2018-11-26T12:45:45.572Z,100694.97
2018-11-26T12:48:15.196Z,100688.97
2018-11-26T12:50:44.616Z,100697.20
2018-11-26T12:53:14.032Z,100689.08
2018-11-26T12:55:43.478Z,100697.25
2018-11-26T12:58:13.056Z,100690.09
2018-11-26T13:00:42.358Z,100703.70
2018-11-26T13:03:13.863Z,100702.70
2018-11-26T13:05:43.302Z,100702.17
2018-11-26T13:08:12.747Z,100699.11
2018-11-26T13:10:42.180Z,100699.17
2018-11-26T13:13:11.997Z,100698.34
2018-11-26T13:15:41.430Z,100699.11
2018-11-26T13:18:11.023Z,100697.94
2018-11-26T13:20:40.490Z,100700.28
2018-11-26T13:23:10.810Z,100697.64
2018-11-26T13:25:42.114Z,100695.33
2018-11-26T13:28:10.743Z,100698.79
2018-11-26T13:30:47.470Z,100700.44
2018-11-26T13:33:18.534Z,100693.86
2018-11-26T13:35:49.442Z,100701.89
2018-11-26T13:38:18.921Z,100703.12
2018-11-26T13:40:48.383Z,100702.63
2018-11-26T13:43:18.542Z,100705.09
2018-11-26T13:45:49.564Z,100714.55
2018-11-26T13:48:19.944Z,100717.89
2018-11-26T13:50:57.062Z,100713.77
2018-11-26T13:53:26.484Z,100714.44
2018-11-26T13:55:56.118Z,100714.66
2018-11-26T13:58:25.526Z,100715.01
2018-11-26T14:00:55.011Z,100723.17
2018-11-26T14:03:24.483Z,100715.01
2018-11-26T14:05:53.928Z,100725.81
2018-11-26T14:08:23.569Z,100717.19
2018-11-26T14:10:53.007Z,100723.70
2018-11-26T14:13:22.407Z,100724.99
2018-11-26T14:15:51.929Z,100734.98
2018-11-26T14:18:21.380Z,100730.22
2018-11-26T14:20:50.819Z,100732.33
2018-11-26T14:23:20.283Z,100731.80
2018-11-26T14:25:50.557Z,100729.94
2018-11-26T14:28:20.046Z,100733.62
2018-11-26T14:30:49.607Z,100739.14
2018-11-26T14:33:19.095Z,100729.56
2018-11-26T14:35:48.581Z,100733.84
2018-11-26T14:38:18.044Z,100731.61
2018-11-26T14:40:52.403Z,100727.23
2018-11-26T14:43:22.255Z,100729.34
2018-11-26T14:45:51.689Z,100736.14
2018-11-26T14:48:21.131Z,100731.33
2018-11-26T14:50:50.638Z,100734.38
2018-11-26T14:53:20.068Z,100742.25
2018-11-26T14:55:49.555Z,100745.30
2018-11-26T14:58:18.975Z,100742.28
2018-11-26T15:00:48.422Z,100737.56
2018-11-26T15:03:17.872Z,100755.16
2018-11-26T15:05:47.636Z,100750.81
2018-11-26T15:08:17.173Z,100757.27
2018-11-26T15:10:46.595Z,100757.27
2018-11-26T15:13:16.097Z,100755.98
2018-11-26T15:15:45.517Z,100749.05
2018-11-26T15:18:14.973Z,100760.20
2018-11-26T15:20:44.623Z,100764.48
2018-11-26T15:23:14.065Z,100768.35
2018-11-26T15:25:43.506Z,100768.28
2018-11-26T15:28:14.407Z,100761.36
2018-11-26T15:30:43.843Z,100762.52
2018-11-26T15:33:13.287Z,100755.53
2018-11-26T15:35:42.770Z,100754.61
2018-11-26T15:38:12.175Z,100764.94
2018-11-26T15:40:41.589Z,100760.12
2018-11-26T15:43:11.008Z,100760.05
2018-11-26T15:45:40.433Z,100767.45
2018-11-26T15:48:12.807Z,100768.34
2018-11-26T15:50:42.462Z,100771.67
2018-11-26T15:53:11.954Z,100770.25
2018-11-26T15:55:41.600Z,100766.65
2018-11-26T15:58:11.472Z,100768.76
2018-11-26T16:00:40.942Z,100766.65
2018-11-26T16:03:10.830Z,100778.80
2018-11-26T16:05:40.223Z,100771.12
2018-11-26T16:08:15.402Z,100771.19
2018-11-26T16:10:44.826Z,100766.44
2018-11-26T16:13:16.399Z,100768.95
2018-11-26T16:15:46.531Z,100778.80
2018-11-26T16:18:20.396Z,100780.30
2018-11-26T16:20:51.039Z,100789.23
2018-11-26T16:23:20.508Z,100796.91
2018-11-26T16:25:50.573Z,100791.68
2018-11-26T16:28:22.521Z,100789.44
2018-11-26T16:30:52.288Z,100785.58
2018-11-26T16:33:21.721Z,100801.87
2018-11-26T16:35:51.124Z,100803.09
2018-11-26T16:38:20.553Z,100801.80
2018-11-26T16:40:49.994Z,100795.76
2018-11-26T16:43:19.371Z,100801.33
2018-11-26T16:45:48.799Z,100806.08
2018-11-26T16:48:18.239Z,100800.52
2018-11-26T16:50:47.666Z,100804.52
2018-11-26T16:53:19.320Z,100808.39
2018-11-26T16:55:46.691Z,100809.95
2018-11-26T16:58:16.104Z,100811.17
2018-11-26T17:00:45.541Z,100808.52
2018-11-26T17:03:14.963Z,100810.56
2018-11-26T17:05:44.391Z,100817.31
2018-11-26T17:08:15.259Z,100818.94
2018-11-26T17:10:45.014Z,100823.29
2018-11-26T17:13:15.127Z,100823.29
2018-11-26T17:15:44.543Z,100830.69
2018-11-26T17:18:14.009Z,100833.61
2018-11-26T17:20:43.401Z,100834.42
2018-11-26T17:23:12.803Z,100841.69
2018-11-26T17:25:42.227Z,100838.30
2018-11-26T17:28:11.721Z,100838.30
2018-11-26T17:30:41.786Z,100837.14
2018-11-26T17:33:12.506Z,100839.31
2018-11-26T17:35:41.960Z,100838.09
2018-11-26T17:38:11.379Z,100850.63
2018-11-26T17:40:41.236Z,100845.83
2018-11-26T17:43:14.186Z,100836.02
2018-11-26T17:45:43.904Z,100842.14
2018-11-26T17:48:13.567Z,100845.59
2018-11-26T17:50:45.197Z,100843.91
2018-11-26T17:53:19.631Z,100846.14
2018-11-26T17:55:52.727Z,100847.44
2018-11-26T17:58:25.858Z,100855.59
2018-11-26T18:01:34.260Z,100857.83
2018-11-26T18:04:03.751Z,100866.86
2018-11-26T18:06:33.287Z,100870.66
2018-11-26T18:09:02.895Z,100864.69
2018-11-26T18:11:32.503Z,100872.42
2018-11-26T18:14:02.032Z,100872.77
2018-11-26T18:16:31.579Z,100882.20
2018-11-26T18:19:01.026Z,100883.02
2018-11-26T18:21:30.682Z,100886.48
2018-11-26T18:24:00.115Z,100883.42
2018-11-26T18:26:29.803Z,100883.90
2018-11-26T18:28:59.444Z,100872.22
2018-11-26T18:31:29.132Z,100882.61
2018-11-26T18:33:58.698Z,100883.90
2018-11-26T18:36:28.164Z,100877.99
2018-11-26T18:38:57.888Z,100887.09
2018-11-26T18:41:27.389Z,100881.05
2018-11-26T18:43:56.853Z,100887.98
2018-11-26T18:46:26.281Z,100885.53
2018-11-26T18:48:55.687Z,100892.09
2018-11-26T18:51:25.140Z,100886.53
2018-11-26T18:53:54.776Z,100887.89
2018-11-26T18:56:24.214Z,100903.38
2018-11-26T18:58:53.828Z,100897.39
2018-11-26T19:01:23.326Z,100905.14
2018-11-26T19:03:52.740Z,100903.03
2018-11-26T19:06:22.245Z,100905.61
2018-11-26T19:08:51.743Z,100902.97
2018-11-26T19:11:21.248Z,100902.15
2018-11-26T19:14:09.999Z,100909.02
2018-11-26T19:16:45.812Z,100903.38
2018-11-26T19:19:15.570Z,100911.59
2018-11-26T19:21:45.184Z,100900.79
2018-11-26T19:24:14.719Z,100902.22
2018-11-26T19:26:44.266Z,100899.70
2018-11-26T19:29:13.748Z,100907.05
2018-11-26T19:31:43.287Z,100904.80
2018-11-26T19:34:12.986Z,100901.81
2018-11-26T19:36:42.418Z,100907.92
2018-11-26T19:39:11.835Z,100908.41
2018-11-26T19:41:41.225Z,100911.46
2018-11-26T19:44:10.776Z,100915.41
2018-11-26T19:46:40.304Z,100912.34
2018-11-26T19:49:10.044Z,100911.94
2018-11-26T19:51:39.519Z,100912.28
2018-11-26T19:54:09.176Z,100919.54
2018-11-26T19:56:38.627Z,100922.94
2018-11-26T19:59:08.247Z,100916.96
2018-11-26T20:01:37.785Z,100924.70
2018-11-26T20:04:29.638Z,100916.08
2018-11-26T20:06:59.066Z,100920.70
2018-11-26T20:09:28.614Z,100921.98
2018-11-26T20:11:58.044Z,100925.45
2018-11-26T20:14:27.666Z,100920.77
2018-11-26T20:16:58.107Z,100929.73
2018-11-26T20:19:27.506Z,100928.84
2018-11-26T20:21:57.034Z,100922.32
2018-11-26T20:24:26.756Z,100926.49
2018-11-26T20:26:56.255Z,100934.36
2018-11-26T20:29:25.767Z,100939.86
2018-11-26T20:31:55.262Z,100948.34
2018-11-26T20:34:24.797Z,100942.15
2018-11-26T20:36:54.225Z,100956.48
2018-11-26T20:39:23.678Z,100954.91
2018-11-26T20:41:53.259Z,100968.51
2018-11-26T20:44:22.762Z,100957.97
2018-11-26T20:46:52.171Z,100962.43
2018-11-26T20:49:21.567Z,100962.09
2018-11-26T20:51:50.999Z,100968.31
2018-11-26T20:54:20.413Z,100968.50
2018-11-26T20:56:49.842Z,100967.27
2018-11-26T20:59:19.303Z,100973.30
2018-11-26T21:01:48.828Z,100964.62
2018-11-26T21:04:18.523Z,100977.41
2018-11-26T21:06:47.987Z,100974.72
2018-11-26T21:09:17.471Z,100976.02
2018-11-26T21:11:47.034Z,100980.41
2018-11-26T21:14:21.318Z,100978.80
2018-11-26T21:16:46.030Z,100975.06
2018-11-26T21:19:15.526Z,100979.00
2018-11-26T21:21:45.000Z,100988.94
2018-11-26T21:24:14.463Z,100984.66
2018-11-26T21:26:43.925Z,100986.06
2018-11-26T21:29:13.455Z,100990.31
2018-11-26T21:31:42.925Z,100985.27
2018-11-26T21:34:12.477Z,100986.31
2018-11-26T21:36:42.007Z,100990.32
2018-11-26T21:39:11.883Z,100990.11
2018-11-26T21:41:41.367Z,100988.09
2018-11-26T21:44:10.912Z,100992.81
2018-11-26T21:46:40.479Z,100996.67
2018-11-26T21:49:09.946Z,101007.19
2018-11-26T21:51:39.424Z,101009.45
2018-11-26T21:54:08.893Z,100999.88
2018-11-26T21:56:38.435Z,101007.25
2018-11-26T21:59:07.947Z,101009.59
2018-11-26T22:01:37.464Z,101005.80
2018-11-26T22:04:08.011Z,101003.76
2018-11-26T22:06:37.895Z,101006.98
2018-11-26T22:09:10.023Z,101009.78
2018-11-26T22:11:39.647Z,101013.86
2018-11-26T22:14:09.144Z,101018.82
2018-11-26T22:16:38.615Z,101020.84
2018-11-26T22:19:08.535Z,101024.92
2018-11-26T22:21:37.994Z,101033.73
2018-11-26T22:24:07.480Z,101036.13
2018-11-26T22:26:36.947Z,101034.17
2018-11-26T22:29:06.843Z,101034.42
2018-11-26T22:31:36.307Z,101044.03
2018-11-26T22:34:06.057Z,101045.93
2018-11-26T22:36:35.505Z,101039.11
2018-11-26T22:39:09.213Z,101043.45
2018-11-26T22:41:38.724Z,101045.13
2018-11-26T22:44:08.138Z,101055.14
2018-11-26T22:46:37.530Z,101051.13
2018-11-26T22:49:06.974Z,101056.88
2018-11-26T22:51:36.383Z,101055.91
2018-11-26T22:54:05.884Z,101062.84
2018-11-26T22:56:35.359Z,101051.63
2018-11-26T22:59:04.886Z,101055.78
2018-11-26T23:01:35.188Z,101056.88
2018-11-26T23:04:03.898Z,101056.30
2018-11-26T23:06:33.368Z,101048.41
2018-11-26T23:09:02.812Z,101054.98
2018-11-26T23:11:32.328Z,101053.11
2018-11-26T23:14:01.792Z,101053.81
2018-11-26T23:16:31.191Z,101054.81
2018-11-26T23:19:00.593Z,101065.38
2018-11-26T23:21:29.991Z,101059.70
2018-11-26T23:23:59.516Z,101064.44
2018-11-26T23:26:29.011Z,101055.75
2018-11-26T23:28:58.404Z,101059.91
2018-11-26T23:31:27.830Z,101067.91
2018-11-26T23:33:57.315Z,101069.80
2018-11-26T23:36:26.747Z,101061.51
2018-11-26T23:38:56.272Z,101062.79
2018-11-26T23:41:25.751Z,101070.48
2018-11-26T23:43:55.334Z,101062.00
2018-11-26T23:46:24.746Z,101069.20
2018-11-26T23:48:54.162Z,101073.87
2018-11-26T23:51:23.567Z,101065.20
2018-11-26T23:53:53.014Z,101077.14
2018-11-26T23:56:22.475Z,101074.97
2018-11-26T23:58:51.960Z,101080.11
